Terminal Aerodrome Forecast
Issued by NWS

Current Version | Previous Version | Graphics & Text | Print | Product List | Glossary On
Versions: 1 2 3 4 5 6 7 8 9 10 11 12 13 14 15 16 17 18 19 20 21 22
000
FTUS41 KRLX 162300
TAFCKB
TAF
KCKB 162328Z 1700/1724 25011KT P6SM SCT015 BKN025
     FM170500 26009KT 6SM -DZ BR OVC015
     FM171100 25008KT 6SM BR OVC009
     FM171200 25009KT 6SM -DZ BR OVC012
     FM171600 26010G17KT P6SM OVC015=

USA.gov is the U.S. government's official web portal to all federal, state and local government web resources and services.